createdAt,value
2018-04-14T00:02:22.354Z,12.60
2018-04-14T00:04:50.065Z,12.60
2018-04-14T00:07:17.675Z,12.60
2018-04-14T00:09:45.405Z,12.60
2018-04-14T00:12:13.065Z,12.50
2018-04-14T00:14:40.718Z,12.50
2018-04-14T00:17:08.339Z,12.50
2018-04-14T00:19:36.398Z,12.50
2018-04-14T00:22:04.060Z,12.50
2018-04-14T00:24:31.684Z,12.60
2018-04-14T00:26:59.665Z,12.60
2018-04-14T00:29:27.279Z,12.60
2018-04-14T00:31:55.676Z,12.50
2018-04-14T00:34:23.383Z,12.50
2018-04-14T00:36:51.021Z,12.50
2018-04-14T00:39:18.702Z,12.50
2018-04-14T00:41:46.385Z,12.60
2018-04-14T00:44:14.890Z,12.50
2018-04-14T00:46:42.484Z,12.50
2018-04-14T00:49:10.082Z,12.50
2018-04-14T00:51:37.713Z,12.50
2018-04-14T00:54:05.389Z,12.50
2018-04-14T00:56:33.000Z,12.50
2018-04-14T00:59:01.389Z,12.50
2018-04-14T01:01:29.057Z,12.50
2018-04-14T01:03:56.775Z,12.40
2018-04-14T01:06:24.937Z,12.50
2018-04-14T01:08:52.569Z,12.40
2018-04-14T01:11:20.238Z,12.40
2018-04-14T01:13:47.939Z,12.50
2018-04-14T01:16:15.628Z,12.50
2018-04-14T01:18:44.012Z,12.40
2018-04-14T01:21:11.707Z,12.40
2018-04-14T01:23:39.356Z,12.40
2018-04-14T01:26:07.051Z,12.50
2018-04-14T01:28:34.685Z,12.40
2018-04-14T01:31:02.343Z,12.40
2018-04-14T01:33:29.932Z,12.40
2018-04-14T01:35:57.543Z,12.40
2018-04-14T01:38:25.146Z,12.30
2018-04-14T01:40:53.733Z,12.40
2018-04-14T01:43:21.380Z,12.40
2018-04-14T01:45:48.999Z,12.40
2018-04-14T01:48:17.422Z,12.40
2018-04-14T01:50:45.777Z,12.40
2018-04-14T01:53:13.440Z,12.50
2018-04-14T01:55:41.095Z,12.50
2018-04-14T01:58:08.763Z,12.50
2018-04-14T02:00:37.143Z,12.40
2018-04-14T02:03:05.511Z,12.40
2018-04-14T02:05:34.255Z,12.40
2018-04-14T02:08:01.915Z,12.40
2018-04-14T02:10:29.496Z,12.40
2018-04-14T02:12:57.183Z,12.30
2018-04-14T02:15:25.556Z,12.20
2018-04-14T02:17:53.966Z,12.20
2018-04-14T02:20:21.620Z,12.10
2018-04-14T02:22:49.260Z,12.10
2018-04-14T02:25:16.923Z,12.20
2018-04-14T02:27:45.406Z,12.20
2018-04-14T02:30:13.029Z,12.20
2018-04-14T02:32:40.724Z,12.10
2018-04-14T02:35:08.336Z,12.00
2018-04-14T02:37:36.062Z,11.90
2018-04-14T02:40:03.661Z,11.80
2018-04-14T02:42:31.259Z,11.80
2018-04-14T02:44:58.892Z,11.80
2018-04-14T02:47:26.516Z,11.90
2018-04-14T02:49:54.163Z,11.90
2018-04-14T02:52:22.596Z,11.90
2018-04-14T02:54:50.271Z,11.90
2018-04-14T02:57:17.952Z,11.90
2018-04-14T02:59:45.626Z,11.90
2018-04-14T03:02:13.270Z,11.90
2018-04-14T03:04:41.466Z,11.80
2018-04-14T03:07:09.103Z,11.80
2018-04-14T03:09:36.751Z,11.90
2018-04-14T03:12:04.336Z,11.80
2018-04-14T03:14:31.974Z,11.80
2018-04-14T03:16:59.688Z,11.80
2018-04-14T03:19:27.343Z,11.80
2018-04-14T03:21:55.480Z,12.00
2018-04-14T03:24:23.130Z,12.00
2018-04-14T03:26:51.210Z,12.00
2018-04-14T03:29:19.864Z,12.10
2018-04-14T03:31:47.524Z,12.20
2018-04-14T03:34:15.279Z,12.20
2018-04-14T03:36:42.893Z,12.10
2018-04-14T03:39:10.510Z,12.20
2018-04-14T03:41:38.166Z,12.30
2018-04-14T03:44:05.775Z,12.30
2018-04-14T03:46:33.437Z,12.30
2018-04-14T03:49:01.049Z,12.30
2018-04-14T03:51:28.650Z,12.30
2018-04-14T03:53:56.314Z,12.30
2018-04-14T03:56:23.942Z,12.20
2018-04-14T03:58:51.601Z,12.20
2018-04-14T04:01:19.245Z,12.20
2018-04-14T04:03:46.942Z,12.20
2018-04-14T04:06:15.620Z,12.10
2018-04-14T04:08:43.365Z,11.90
2018-04-14T04:11:11.113Z,11.90
2018-04-14T04:13:39.560Z,11.90
2018-04-14T04:16:07.167Z,11.80
2018-04-14T04:18:47.558Z,11.70
2018-04-14T04:21:27.117Z,11.70
2018-04-14T04:24:06.592Z,11.60
2018-04-14T04:26:35.047Z,11.60
2018-04-14T04:29:02.721Z,11.60
2018-04-14T04:31:30.389Z,11.60
2018-04-14T04:33:58.833Z,11.60
2018-04-14T04:36:26.477Z,11.60
2018-04-14T04:38:54.106Z,11.50
2018-04-14T04:41:22.488Z,11.40
2018-04-14T04:43:50.110Z,11.40
2018-04-14T04:46:22.654Z,11.40
2018-04-14T04:48:50.355Z,11.40
2018-04-14T04:51:17.978Z,11.40
2018-04-14T04:53:45.815Z,11.20
2018-04-14T04:56:14.185Z,11.00
2018-04-14T04:58:41.809Z,11.00
2018-04-14T05:01:09.460Z,11.00
2018-04-14T05:03:37.040Z,11.00
2018-04-14T05:06:05.965Z,11.00
2018-04-14T05:08:33.672Z,10.80
2018-04-14T05:11:01.249Z,10.80
2018-04-14T05:13:28.969Z,10.80
2018-04-14T05:15:56.618Z,10.90
2018-04-14T05:18:24.227Z,11.00
2018-04-14T05:20:51.871Z,10.80
2018-04-14T05:23:19.456Z,10.80
2018-04-14T05:25:48.773Z,10.80
2018-04-14T05:28:16.364Z,10.70
2018-04-14T05:30:43.942Z,10.70
2018-04-14T05:33:11.596Z,10.70
2018-04-14T05:35:39.975Z,10.80
2018-04-14T05:38:08.367Z,10.70
2018-04-14T05:40:35.953Z,10.70
2018-04-14T05:43:03.560Z,10.80
2018-04-14T05:45:31.209Z,10.60
2018-04-14T05:47:59.947Z,10.60
2018-04-14T05:50:27.552Z,10.60
2018-04-14T05:52:55.232Z,10.70
2018-04-14T05:55:22.808Z,10.70
2018-04-14T05:57:51.196Z,10.90
2018-04-14T06:00:19.557Z,10.90
2018-04-14T06:02:50.867Z,10.90
2018-04-14T06:05:18.452Z,11.00
2018-04-14T06:07:46.055Z,11.10
2018-04-14T06:10:13.646Z,11.10
2018-04-14T06:12:41.338Z,11.00
2018-04-14T06:15:08.982Z,11.10
2018-04-14T06:17:36.670Z,11.20
2018-04-14T06:20:04.253Z,11.30
2018-04-14T06:22:31.876Z,11.30
2018-04-14T06:24:59.458Z,11.30
2018-04-14T06:27:27.868Z,11.30
2018-04-14T06:29:55.512Z,11.30
2018-04-14T06:32:23.483Z,11.20
2018-04-14T06:34:51.879Z,11.30
2018-04-14T06:37:19.539Z,11.30
2018-04-14T06:39:47.172Z,11.40
2018-04-14T06:42:14.862Z,11.60
2018-04-14T06:44:42.683Z,11.60
2018-04-14T06:47:10.322Z,11.70
2018-04-14T06:49:37.914Z,11.70
2018-04-14T06:52:05.961Z,11.80
2018-04-14T06:54:33.620Z,11.70
2018-04-14T06:57:01.810Z,11.80
2018-04-14T06:59:29.466Z,11.80
2018-04-14T07:01:57.042Z,12.00
2018-04-14T07:04:24.670Z,12.20
2018-04-14T07:06:52.298Z,12.50
2018-04-14T07:09:20.086Z,12.60
2018-04-14T07:11:47.671Z,12.40
2018-04-14T07:14:15.307Z,12.40
2018-04-14T07:16:42.975Z,12.40
2018-04-14T07:19:10.695Z,12.50
2018-04-14T07:21:39.313Z,12.70
2018-04-14T07:24:07.967Z,12.70
2018-04-14T07:26:36.352Z,12.80
2018-04-14T07:29:04.772Z,12.80
2018-04-14T07:31:32.387Z,12.80
2018-04-14T07:34:00.857Z,12.80
2018-04-14T07:36:28.471Z,12.80
2018-04-14T07:38:56.872Z,12.70
2018-04-14T07:41:24.571Z,12.60
2018-04-14T07:43:53.058Z,12.50
2018-04-14T07:46:20.669Z,12.50
2018-04-14T07:48:49.036Z,12.80
2018-04-14T07:51:16.659Z,12.70
2018-04-14T07:53:44.315Z,12.90
2018-04-14T07:56:12.717Z,13.00
2018-04-14T07:58:40.995Z,12.90
2018-04-14T08:01:08.637Z,12.80
2018-04-14T08:03:37.225Z,12.60
2018-04-14T08:06:05.686Z,12.50
2018-04-14T08:08:34.092Z,12.70
2018-04-14T08:11:01.731Z,12.70
2018-04-14T08:13:30.204Z,12.90
2018-04-14T08:15:58.259Z,12.90
2018-04-14T08:18:26.690Z,13.70
2018-04-14T08:20:54.402Z,13.70
2018-04-14T08:23:22.078Z,13.90
2018-04-14T08:25:49.664Z,13.70
2018-04-14T08:28:18.072Z,13.50
2018-04-14T08:30:45.714Z,13.40
2018-04-14T08:33:13.370Z,13.60
2018-04-14T08:35:41.045Z,13.40
2018-04-14T08:38:08.676Z,13.30
2018-04-14T08:40:36.311Z,13.40
2018-04-14T08:43:03.957Z,13.60
2018-04-14T08:45:31.556Z,13.60
2018-04-14T08:47:59.200Z,13.40
2018-04-14T08:50:26.809Z,13.30
2018-04-14T08:52:54.527Z,13.40
2018-04-14T08:55:22.922Z,13.70
2018-04-14T08:57:50.548Z,13.70
2018-04-14T09:00:18.892Z,13.80
2018-04-14T09:02:46.648Z,13.80
2018-04-14T09:05:14.267Z,13.70
2018-04-14T09:07:42.001Z,13.80
2018-04-14T09:10:09.643Z,13.50
2018-04-14T09:12:37.303Z,13.50
2018-04-14T09:15:20.833Z,13.70
2018-04-14T09:17:49.187Z,13.60
2018-04-14T09:20:17.568Z,13.60
2018-04-14T09:22:45.222Z,13.60
2018-04-14T09:25:12.857Z,13.60
2018-04-14T09:27:40.471Z,13.50
2018-04-14T09:30:08.136Z,13.50
2018-04-14T09:32:36.517Z,13.70
2018-04-14T09:35:04.120Z,13.90
2018-04-14T09:37:32.516Z,14.20
2018-04-14T09:40:00.133Z,14.20
2018-04-14T09:42:28.353Z,14.40
2018-04-14T09:44:56.058Z,14.40
2018-04-14T09:47:23.687Z,14.70
2018-04-14T09:49:52.064Z,14.60
2018-04-14T09:52:19.683Z,14.60
2018-04-14T09:54:47.285Z,14.60
2018-04-14T09:57:14.945Z,14.80
2018-04-14T09:59:42.715Z,15.00
2018-04-14T10:02:11.148Z,15.10
2018-04-14T10:04:38.744Z,15.10
2018-04-14T10:07:06.376Z,15.30
2018-04-14T10:09:34.151Z,15.10
2018-04-14T10:12:03.481Z,15.10
2018-04-14T10:14:31.197Z,15.10
2018-04-14T10:16:58.806Z,15.30
2018-04-14T10:19:26.434Z,15.50
2018-04-14T10:21:54.804Z,15.10
2018-04-14T10:24:22.407Z,15.10
2018-04-14T10:26:50.045Z,15.20
2018-04-14T10:29:17.662Z,15.50
2018-04-14T10:31:45.377Z,15.20
2018-04-14T10:34:13.124Z,15.20
2018-04-14T10:36:41.457Z,15.30
2018-04-14T10:39:09.913Z,15.10
2018-04-14T10:41:37.499Z,15.10
2018-04-14T10:44:06.764Z,15.10
2018-04-14T10:46:34.386Z,15.10
2018-04-14T10:49:02.027Z,15.10
2018-04-14T10:51:30.670Z,15.00
2018-04-14T10:53:58.382Z,14.70
2018-04-14T10:56:26.029Z,14.70
2018-04-14T10:58:53.684Z,14.90
2018-04-14T11:01:22.091Z,14.80
2018-04-14T11:03:49.861Z,14.80
2018-04-14T11:06:17.563Z,14.90
2018-04-14T11:08:45.286Z,14.90
2018-04-14T11:11:12.945Z,15.10
2018-04-14T11:13:40.578Z,15.10
2018-04-14T11:16:08.183Z,15.30
2018-04-14T11:18:35.829Z,15.50
2018-04-14T11:21:03.529Z,15.40
2018-04-14T11:23:31.943Z,15.50
2018-04-14T11:25:59.590Z,15.50
2018-04-14T11:28:27.328Z,15.50
2018-04-14T11:30:54.920Z,15.60
2018-04-14T11:33:22.557Z,15.70
2018-04-14T11:35:51.022Z,16.10
2018-04-14T11:38:18.653Z,16.10
2018-04-14T11:40:47.208Z,15.70
2018-04-14T11:43:15.649Z,15.70
2018-04-14T11:45:43.264Z,15.70
2018-04-14T11:48:11.654Z,16.00
2018-04-14T11:50:40.028Z,16.00
2018-04-14T11:53:08.463Z,16.00
2018-04-14T11:55:36.037Z,16.00
2018-04-14T11:58:03.656Z,16.00
2018-04-14T12:00:31.390Z,16.00
2018-04-14T12:02:59.019Z,16.20
2018-04-14T12:05:26.731Z,16.50
2018-04-14T12:07:54.376Z,16.80
2018-04-14T12:10:22.835Z,17.00
2018-04-14T12:12:50.480Z,17.00
2018-04-14T12:15:18.148Z,17.10
2018-04-14T12:17:45.738Z,17.30
2018-04-14T12:20:13.398Z,17.30
2018-04-14T12:22:41.080Z,17.30
2018-04-14T12:25:09.425Z,17.40
2018-04-14T12:27:37.036Z,17.50
2018-04-14T12:30:05.421Z,17.20
2018-04-14T12:32:33.360Z,17.00
2018-04-14T12:35:01.878Z,16.80
2018-04-14T12:37:29.499Z,16.80
2018-04-14T12:39:57.993Z,16.50
2018-04-14T12:42:25.756Z,16.50
2018-04-14T12:44:53.403Z,16.30
2018-04-14T12:47:21.824Z,16.20
2018-04-14T12:49:49.445Z,16.20
2018-04-14T12:52:17.849Z,16.30
2018-04-14T12:54:45.512Z,16.30
2018-04-14T12:57:13.166Z,16.40
2018-04-14T12:59:40.748Z,16.70
2018-04-14T13:02:08.369Z,16.20
2018-04-14T13:04:36.750Z,15.90
2018-04-14T13:07:05.139Z,15.60
2018-04-14T13:09:33.071Z,15.60
2018-04-14T13:12:00.752Z,15.50
2018-04-14T13:14:29.235Z,15.50
2018-04-14T13:16:56.840Z,15.50
2018-04-14T13:19:24.568Z,15.40
2018-04-14T13:21:53.545Z,15.40
2018-04-14T13:24:21.148Z,15.30
2018-04-14T13:26:48.874Z,15.40
2018-04-14T13:29:17.570Z,15.60
2018-04-14T13:31:45.930Z,15.50
2018-04-14T13:34:13.551Z,15.50
2018-04-14T13:36:41.204Z,15.50
2018-04-14T13:39:09.550Z,15.60
2018-04-14T13:41:38.071Z,15.30
2018-04-14T13:44:05.699Z,15.30
2018-04-14T13:46:34.175Z,15.60
2018-04-14T13:49:01.805Z,15.60
2018-04-14T13:51:30.660Z,15.60
2018-04-14T13:53:58.397Z,15.60
2018-04-14T13:56:26.052Z,15.60
2018-04-14T13:58:54.410Z,15.90
2018-04-14T14:01:22.043Z,15.90
2018-04-14T14:03:49.674Z,16.00
2018-04-14T14:06:17.804Z,16.10
2018-04-14T14:08:45.447Z,16.10
2018-04-14T14:11:13.175Z,16.30
2018-04-14T14:13:40.804Z,16.30
2018-04-14T14:16:09.269Z,16.20
2018-04-14T14:18:37.132Z,16.20
2018-04-14T14:21:05.500Z,15.90
2018-04-14T14:23:33.397Z,15.90
2018-04-14T14:26:01.783Z,15.90
2018-04-14T14:28:29.442Z,15.90
2018-04-14T14:30:57.853Z,16.00
2018-04-14T14:33:25.488Z,16.00
2018-04-14T14:35:53.068Z,16.00
2018-04-14T14:38:20.863Z,16.10
2018-04-14T14:40:48.519Z,16.20
2018-04-14T14:43:16.163Z,16.40
2018-04-14T14:45:43.758Z,16.20
2018-04-14T14:48:11.459Z,16.10
2018-04-14T14:50:39.660Z,16.20
2018-04-14T14:53:07.269Z,16.30
2018-04-14T14:55:34.850Z,16.30
2018-04-14T14:58:02.492Z,16.30
2018-04-14T15:00:30.140Z,16.40
2018-04-14T15:02:57.762Z,16.40
2018-04-14T15:05:25.365Z,16.20
2018-04-14T15:07:53.854Z,16.40
2018-04-14T15:10:21.460Z,16.50
2018-04-14T15:12:50.582Z,16.50
2018-04-14T15:15:18.201Z,16.50
2018-04-14T15:17:45.801Z,16.50
2018-04-14T15:20:13.420Z,16.50
2018-04-14T15:22:41.066Z,16.40
2018-04-14T15:25:08.735Z,16.40
2018-04-14T15:27:36.445Z,16.40
2018-04-14T15:30:04.082Z,16.40
2018-04-14T15:32:32.490Z,16.30
2018-04-14T15:35:00.121Z,16.30
2018-04-14T15:37:27.776Z,16.30
2018-04-14T15:39:56.117Z,16.30
2018-04-14T15:42:23.747Z,16.30
2018-04-14T15:44:51.372Z,16.20
2018-04-14T15:47:19.133Z,16.10
2018-04-14T15:49:46.884Z,16.00
2018-04-14T15:52:14.534Z,16.10
2018-04-14T15:54:42.166Z,16.20
2018-04-14T15:57:09.810Z,16.20
2018-04-14T15:59:38.283Z,16.40
2018-04-14T16:02:06.664Z,16.40
2018-04-14T16:04:35.049Z,16.40
2018-04-14T16:07:02.807Z,16.40
2018-04-14T16:09:31.197Z,16.00
2018-04-14T16:11:58.815Z,16.00
2018-04-14T16:14:26.431Z,16.00
2018-04-14T16:16:54.046Z,15.90
2018-04-14T16:19:21.693Z,15.80
2018-04-14T16:21:49.373Z,15.60
2018-04-14T16:24:17.044Z,15.70
2018-04-14T16:26:44.652Z,15.70
2018-04-14T16:29:12.305Z,15.80
2018-04-14T16:31:39.968Z,15.90
2018-04-14T16:34:07.597Z,16.00
2018-04-14T16:36:35.231Z,16.10
2018-04-14T16:39:02.889Z,16.30
2018-04-14T16:41:30.515Z,16.40
2018-04-14T16:43:59.022Z,16.30
2018-04-14T16:46:26.690Z,16.30
2018-04-14T16:48:54.331Z,16.30
2018-04-14T16:51:21.992Z,16.20
2018-04-14T16:53:49.638Z,16.10
2018-04-14T16:56:17.234Z,16.00
2018-04-14T16:58:44.896Z,15.90
2018-04-14T17:01:12.577Z,15.90
2018-04-14T17:03:40.187Z,15.80
2018-04-14T17:06:08.298Z,15.80
2018-04-14T17:08:35.925Z,15.70
2018-04-14T17:11:03.570Z,15.70
2018-04-14T17:13:32.020Z,15.70
2018-04-14T17:16:00.524Z,15.70
2018-04-14T17:18:28.995Z,15.60
2018-04-14T17:20:57.403Z,15.50
2018-04-14T17:23:25.023Z,15.50
2018-04-14T17:25:52.603Z,15.50
2018-04-14T17:28:20.977Z,15.40
2018-04-14T17:30:49.451Z,15.40
2018-04-14T17:33:17.233Z,15.40
2018-04-14T17:35:45.622Z,15.40
2018-04-14T17:38:17.331Z,15.40
2018-04-14T17:40:44.926Z,15.30
2018-04-14T17:43:12.553Z,15.30
2018-04-14T17:45:40.273Z,15.20
2018-04-14T17:48:07.941Z,15.20
2018-04-14T17:50:35.547Z,15.10
2018-04-14T17:53:03.200Z,15.00
2018-04-14T17:55:31.786Z,15.00
2018-04-14T17:57:59.403Z,15.00
2018-04-14T18:00:27.085Z,14.90
2018-04-14T18:02:54.856Z,14.80
2018-04-14T18:05:22.477Z,14.80
2018-04-14T18:07:51.469Z,14.80
2018-04-14T18:10:19.634Z,14.80
2018-04-14T18:12:47.245Z,14.80
2018-04-14T18:15:14.888Z,14.70
2018-04-14T18:17:42.548Z,14.60
2018-04-14T18:20:10.155Z,14.50
2018-04-14T18:22:37.871Z,14.50
2018-04-14T18:25:05.486Z,14.40
2018-04-14T18:27:33.121Z,14.50
2018-04-14T18:30:01.591Z,14.40
2018-04-14T18:32:29.292Z,14.30
2018-04-14T18:34:56.966Z,14.20
2018-04-14T18:37:24.629Z,14.20
2018-04-14T18:39:53.083Z,14.20
2018-04-14T18:42:20.779Z,14.10
2018-04-14T18:44:49.178Z,14.10
2018-04-14T18:47:16.895Z,14.10
2018-04-14T18:49:44.604Z,14.10
2018-04-14T18:52:13.137Z,14.00
2018-04-14T18:54:40.778Z,14.00
2018-04-14T18:57:08.421Z,13.90
2018-04-14T18:59:36.109Z,13.90
2018-04-14T19:02:03.809Z,13.90
2018-04-14T19:04:31.493Z,13.90
2018-04-14T19:06:59.124Z,13.80
2018-04-14T19:09:26.873Z,13.70
2018-04-14T19:11:54.478Z,13.70
2018-04-14T19:14:22.111Z,13.70
2018-04-14T19:16:49.801Z,13.70
2018-04-14T19:19:18.187Z,13.70
2018-04-14T19:21:46.737Z,13.70
2018-04-14T19:24:14.378Z,13.60
2018-04-14T19:26:42.749Z,13.70
2018-04-14T19:29:10.400Z,13.70
2018-04-14T19:31:38.099Z,13.70
2018-04-14T19:34:06.504Z,13.70
2018-04-14T19:36:34.938Z,13.60
2018-04-14T19:39:02.610Z,13.60
2018-04-14T19:41:30.259Z,13.60
2018-04-14T19:43:57.961Z,13.60
2018-04-14T19:46:25.679Z,13.60
2018-04-14T19:48:53.409Z,13.50
2018-04-14T19:51:21.047Z,13.50
2018-04-14T19:53:48.705Z,13.40
2018-04-14T19:56:17.142Z,13.50
2018-04-14T19:58:45.725Z,13.40
2018-04-14T20:01:13.365Z,13.50
2018-04-14T20:03:40.981Z,13.40
2018-04-14T20:06:09.099Z,13.40
2018-04-14T20:08:36.746Z,13.30
2018-04-14T20:11:05.373Z,13.30
2018-04-14T20:13:33.002Z,13.30
2018-04-14T20:16:01.466Z,13.20
2018-04-14T20:18:29.093Z,13.20
2018-04-14T20:20:56.711Z,13.20
2018-04-14T20:23:24.417Z,13.10
2018-04-14T20:25:52.140Z,13.10
2018-04-14T20:28:19.722Z,13.10
2018-04-14T20:30:47.383Z,13.00
2018-04-14T20:33:15.197Z,13.00
2018-04-14T20:35:42.838Z,12.90
2018-04-14T20:38:10.509Z,12.90
2018-04-14T20:40:38.198Z,12.90
2018-04-14T20:43:06.599Z,12.80
2018-04-14T20:45:34.255Z,12.80
2018-04-14T20:48:02.005Z,12.80
2018-04-14T20:50:29.621Z,12.70
2018-04-14T20:52:57.209Z,12.60
2018-04-14T20:55:24.848Z,12.60
2018-04-14T20:57:52.450Z,12.50
2018-04-14T21:00:20.135Z,12.50
2018-04-14T21:02:48.089Z,12.40
2018-04-14T21:05:16.812Z,12.30
2018-04-14T21:07:44.404Z,12.40
2018-04-14T21:10:12.143Z,12.30
2018-04-14T21:12:39.741Z,12.30
2018-04-14T21:15:07.435Z,12.30
2018-04-14T21:17:35.131Z,12.30
2018-04-14T21:20:03.746Z,12.30
2018-04-14T21:22:31.435Z,12.20
2018-04-14T21:24:59.856Z,12.20
2018-04-14T21:27:28.565Z,12.20
2018-04-14T21:29:56.257Z,12.20
2018-04-14T21:32:24.639Z,12.10
2018-04-14T21:34:52.268Z,12.10
2018-04-14T21:37:19.988Z,12.10
2018-04-14T21:39:47.697Z,12.10
2018-04-14T21:42:15.311Z,12.10
2018-04-14T21:44:42.954Z,12.10
2018-04-14T21:47:10.610Z,12.00
2018-04-14T21:49:38.273Z,12.10
2018-04-14T21:52:06.684Z,12.10
2018-04-14T21:54:34.282Z,12.00
2018-04-14T21:57:01.920Z,12.00
2018-04-14T21:59:29.516Z,12.00
2018-04-14T22:01:58.480Z,12.00
2018-04-14T22:04:26.136Z,11.90
2018-04-14T22:06:53.801Z,11.90
2018-04-14T22:09:21.443Z,11.90
2018-04-14T22:11:49.073Z,11.90
2018-04-14T22:14:29.300Z,11.90
2018-04-14T22:16:56.963Z,11.90
2018-04-14T22:19:24.582Z,12.00
2018-04-14T22:21:52.184Z,12.00
2018-04-14T22:24:19.818Z,12.00
2018-04-14T22:26:47.479Z,12.00
2018-04-14T22:29:15.093Z,12.10
2018-04-14T22:31:42.707Z,12.10
2018-04-14T22:34:10.792Z,12.00
2018-04-14T22:36:38.467Z,12.00
2018-04-14T22:39:06.097Z,12.10
2018-04-14T22:41:33.720Z,12.10
2018-04-14T22:44:02.152Z,12.10
2018-04-14T22:46:29.844Z,12.10
2018-04-14T22:48:57.464Z,12.10
2018-04-14T22:51:25.225Z,12.10
2018-04-14T22:53:52.977Z,12.00
2018-04-14T22:56:20.679Z,12.10
2018-04-14T22:58:48.296Z,12.10
2018-04-14T23:01:15.969Z,12.10
2018-04-14T23:03:43.796Z,12.10
2018-04-14T23:06:11.479Z,12.10
2018-04-14T23:08:40.894Z,12.10
2018-04-14T23:11:08.554Z,12.10
2018-04-14T23:13:36.211Z,12.10
2018-04-14T23:16:03.993Z,12.10
2018-04-14T23:18:31.566Z,12.00
2018-04-14T23:20:59.227Z,12.00
2018-04-14T23:23:26.870Z,12.00
2018-04-14T23:25:54.505Z,11.90
2018-04-14T23:28:22.999Z,11.90
2018-04-14T23:30:51.379Z,11.80
2018-04-14T23:33:19.065Z,11.80
2018-04-14T23:35:46.661Z,11.80
2018-04-14T23:38:14.376Z,11.80
2018-04-14T23:40:42.021Z,11.80
2018-04-14T23:43:09.684Z,11.90
2018-04-14T23:45:38.095Z,12.00
2018-04-14T23:48:05.802Z,12.00
2018-04-14T23:50:33.841Z,12.00
2018-04-14T23:53:01.467Z,12.00
2018-04-14T23:55:30.020Z,12.00
2018-04-14T23:57:57.635Z,12.00
